Time;durP1;ratioP1;P1;durP2;ratioP2;P2;SDS_P1;SDS_P2;PMS_P1;PMS_P2;Temp;Humidity;BMP_temperature;BMP_pressure;BME280_temperature;BME280_humidity;BME280_pressure;Samples;Min_cycle;Max_cycle;Signal;HPM_P1;HPM_P2
2022/04/22 00:00:06;;;;;;;5.03;4.00;;;;;;;7.37;69.29;97371.56;5027758;28;20200;-54
2022/04/22 00:02:32;;;;;;;6.60;4.20;;;;;;;7.41;69.20;97359.06;5026812;28;20202;-53
2022/04/22 00:04:59;;;;;;;4.70;3.57;;;;;;;7.27;69.31;97351.94;5028508;28;20216;-51
2022/04/22 00:07:28;;;;;;;5.03;3.80;;;;;;;7.21;70.33;97367.16;5030223;28;20213;-53
2022/04/22 00:09:55;;;;;;;5.90;4.27;;;;;;;7.16;69.97;97364.25;5027730;28;20206;-52
2022/04/22 00:12:21;;;;;;;6.30;4.07;;;;;;;7.15;69.88;97357.44;5026106;28;20194;-53
2022/04/22 00:14:49;;;;;;;5.37;4.03;;;;;;;7.11;69.69;97360.47;5025345;28;20728;-53
2022/04/22 00:17:16;;;;;;;8.63;3.87;;;;;;;7.04;70.59;97358.53;5022733;28;20222;-50
2022/04/22 00:19:43;;;;;;;4.67;3.50;;;;;;;7.02;71.79;97355.28;5025448;28;20274;-52
2022/04/22 00:22:10;;;;;;;8.80;4.03;;;;;;;6.93;71.95;97358.81;5026211;28;20214;-51
2022/04/22 00:24:37;;;;;;;6.70;4.13;;;;;;;6.86;71.65;97347.50;5026102;28;20544;-51
2022/04/22 00:27:03;;;;;;;5.47;4.17;;;;;;;6.86;72.44;97352.69;5026511;28;20188;-51
2022/04/22 00:29:30;;;;;;;5.10;4.07;;;;;;;6.84;72.42;97349.44;5007355;28;20202;-53
2022/04/22 00:31:58;;;;;;;5.80;3.83;;;;;;;6.83;72.16;97342.63;5021132;28;20199;-51
2022/04/22 00:34:25;;;;;;;5.87;4.37;;;;;;;6.75;71.75;97346.81;5023215;28;20581;-51
2022/04/22 00:36:51;;;;;;;6.20;4.70;;;;;;;6.67;72.35;97345.97;5024684;28;20290;-50
2022/04/22 00:39:18;;;;;;;7.67;4.10;;;;;;;6.71;73.68;97342.91;5022675;28;20191;-51
2022/04/22 00:41:45;;;;;;;6.77;5.00;;;;;;;6.62;73.52;97344.66;5023022;28;20192;-52
2022/04/22 00:44:11;;;;;;;6.37;4.27;;;;;;;6.54;73.41;97336.84;5024403;28;20583;-53
2022/04/22 00:46:38;;;;;;;7.20;4.20;;;;;;;6.47;73.81;97341.84;5020742;28;20183;-52
2022/04/22 00:49:09;;;;;;;6.83;4.47;;;;;;;6.43;74.22;97332.75;5025286;28;20184;-52
2022/04/22 00:51:36;;;;;;;6.60;4.73;;;;;;;6.42;75.33;97335.50;5021258;28;20654;-52
2022/04/22 00:54:03;;;;;;;6.43;4.83;;;;;;;6.45;75.76;97330.81;5024849;28;20223;-51
2022/04/22 00:56:30;;;;;;;6.73;4.60;;;;;;;6.41;75.47;97337.28;5026491;28;20214;-51
2022/04/22 00:58:59;;;;;;;7.23;4.57;;;;;;;6.36;75.45;97342.13;5024043;28;20270;-54
2022/04/22 01:01:26;;;;;;;6.57;4.97;;;;;;;6.30;74.63;97330.63;4996488;28;20658;-52
2022/04/22 01:12:09;;;;;;;5.73;4.57;;;;;;;6.26;75.96;97311.16;5019664;28;20255;-51
2022/04/22 01:14:37;;;;;;;6.77;4.90;;;;;;;6.20;76.42;97319.56;5021112;28;20218;-52
2022/04/22 01:17:04;;;;;;;6.07;5.13;;;;;;;6.18;76.73;97311.94;5022703;28;20222;-53
2022/04/22 01:19:31;;;;;;;7.57;4.67;;;;;;;6.19;77.65;97297.22;5022440;28;20202;-54
2022/04/22 01:22:00;;;;;;;7.37;5.80;;;;;;;6.09;78.17;97301.69;5022810;28;20194;-51
2022/04/22 01:24:27;;;;;;;10.27;5.37;;;;;;;5.96;77.54;97302.91;5024549;28;20209;-54
2022/04/22 01:26:55;;;;;;;6.57;4.97;;;;;;;5.97;78.37;97296.75;5023557;28;20214;-50
2022/04/22 01:29:23;;;;;;;8.17;5.27;;;;;;;6.10;79.73;97280.00;5024441;28;20197;-50
2022/04/22 01:32:09;;;;;;;5.93;4.83;;;;;;;6.09;78.55;97289.53;5012211;28;20661;-53
2022/04/22 01:34:35;;;;;;;7.17;5.70;;;;;;;6.02;79.60;97279.00;5005859;28;20208;-52
2022/04/22 01:37:04;;;;;;;7.77;5.53;;;;;;;6.19;78.82;97279.06;5008327;28;20241;-52
2022/04/22 01:39:32;;;;;;;6.83;5.30;;;;;;;6.15;79.04;97280.34;5013643;28;20281;-54
2022/04/22 01:41:59;;;;;;;8.70;5.07;;;;;;;6.07;78.31;97272.53;5009498;28;20659;-53
2022/04/22 01:44:26;;;;;;;7.03;4.80;;;;;;;5.97;79.02;97276.03;5011940;28;20222;-53
2022/04/22 01:46:53;;;;;;;7.23;5.30;;;;;;;6.00;80.05;97264.53;5019034;28;20602;-52
2022/04/22 01:49:19;;;;;;;7.43;5.40;;;;;;;6.10;80.21;97272.22;5022798;28;20248;-51
2022/04/22 01:51:46;;;;;;;10.50;6.30;;;;;;;6.05;79.79;97270.09;5022622;28;20272;-53
2022/04/22 01:54:15;;;;;;;6.97;5.23;;;;;;;5.97;80.83;97260.50;5022024;28;20292;-53
2022/04/22 01:56:41;;;;;;;10.67;5.73;;;;;;;5.89;80.85;97263.03;5019420;28;20204;-54
2022/04/22 01:59:08;;;;;;;8.73;6.23;;;;;;;5.80;81.36;97267.38;5021643;28;20575;-54
2022/04/22 02:01:35;;;;;;;7.97;6.43;;;;;;;5.86;81.29;97261.56;5023278;28;20272;-51
2022/04/22 02:04:01;;;;;;;9.87;6.07;;;;;;;5.95;81.73;97259.00;5018629;28;20214;-53
2022/04/22 02:06:29;;;;;;;8.60;5.80;;;;;;;5.85;81.09;97256.53;5019466;28;20201;-50
2022/04/22 02:08:56;;;;;;;7.07;5.70;;;;;;;5.76;81.34;97266.06;5008755;28;20269;-52
2022/04/22 02:11:24;;;;;;;9.50;6.37;;;;;;;5.75;80.70;97256.66;5012193;28;20234;-52
2022/04/22 02:13:51;;;;;;;8.60;5.83;;;;;;;5.81;80.85;97260.41;5010706;28;20224;-53
2022/04/22 02:16:18;;;;;;;10.10;7.13;;;;;;;5.81;80.23;97252.63;5012360;28;20206;-51
2022/04/22 02:18:45;;;;;;;7.80;6.07;;;;;;;5.81;80.74;97245.69;5020322;28;20248;-52
2022/04/22 02:21:12;;;;;;;8.70;6.30;;;;;;;5.80;80.90;97246.66;5007482;28;20198;-52
2022/04/22 02:23:40;;;;;;;8.93;6.23;;;;;;;5.83;80.58;97246.31;5016029;28;20290;-51
2022/04/22 02:26:07;;;;;;;10.10;7.55;;;;;;;5.78;81.42;97245.19;5006897;28;20446;-51
2022/04/22 02:28:34;;;;;;;9.97;6.73;;;;;;;5.79;82.28;97242.44;4997615;28;20774;-51
2022/04/22 02:31:02;;;;;;;8.57;6.20;;;;;;;5.69;81.64;97239.97;5009872;28;20691;-53
2022/04/22 02:33:30;;;;;;;9.10;6.60;;;;;;;5.64;81.36;97241.41;5008244;28;20700;-54
2022/04/22 02:35:57;;;;;;;10.10;6.60;;;;;;;5.61;81.39;97239.91;5010051;28;20186;-51
2022/04/22 02:38:24;;;;;;;11.47;7.70;;;;;;;5.62;82.57;97231.19;5008296;28;20222;-53
2022/04/22 02:46:20;;;;;;;12.27;7.00;;;;;;;5.59;82.54;97226.31;5019160;28;20247;-52
2022/04/22 02:48:47;;;;;;;8.47;6.33;;;;;;;5.56;82.82;97224.84;5021734;28;20194;-55
2022/04/22 02:51:13;;;;;;;10.07;6.83;;;;;;;5.51;83.06;97224.50;5009829;28;20201;-54
2022/04/22 02:53:40;;;;;;;10.67;7.30;;;;;;;5.42;82.81;97222.81;5012250;28;20709;-53
2022/04/22 02:56:07;;;;;;;13.20;6.93;;;;;;;5.39;83.44;97217.97;4994901;28;20198;-55
2022/04/22 02:58:35;;;;;;;11.03;7.80;;;;;;;5.43;84.43;97214.91;5012432;28;20241;-52
2022/04/22 03:01:02;;;;;;;10.73;6.90;;;;;;;5.41;84.54;97211.66;5012438;28;20198;-52
2022/04/22 03:03:30;;;;;;;12.57;7.30;;;;;;;5.50;83.60;97209.09;5010022;28;20864;-54
2022/04/22 03:05:56;;;;;;;11.47;8.03;;;;;;;5.47;83.52;97218.00;5008953;28;20629;-55
2022/04/22 03:08:23;;;;;;;11.37;7.13;;;;;;;5.37;82.70;97212.91;5022565;28;20197;-52
2022/04/22 03:10:50;;;;;;;12.57;7.87;;;;;;;5.27;84.26;97212.22;5018107;28;20216;-52
2022/04/22 03:13:17;;;;;;;10.03;7.10;;;;;;;5.20;83.89;97211.22;5021763;28;20221;-52
2022/04/22 03:15:46;;;;;;;11.70;7.40;;;;;;;5.18;83.77;97211.34;5032519;28;20200;-52
2022/04/22 03:18:12;;;;;;;9.90;7.73;;;;;;;5.17;84.66;97202.78;5031952;28;20291;-52
2022/04/22 03:20:39;;;;;;;10.23;7.23;;;;;;;5.17;85.62;97201.97;5032105;28;20197;-52
2022/04/22 03:23:06;;;;;;;13.23;7.80;;;;;;;5.16;85.96;97208.94;5032258;28;20207;-54
2022/04/22 03:25:54;;;;;;;8.50;6.83;;;;;;;5.20;85.05;97200.88;5032383;28;20204;-53
2022/04/22 03:28:22;;;;;;;10.37;7.23;;;;;;;5.15;85.42;97201.31;5031840;28;20186;-52
2022/04/22 03:30:50;;;;;;;11.33;8.00;;;;;;;5.11;84.60;97205.16;5032030;28;20189;-55
2022/04/22 03:33:18;;;;;;;10.57;8.23;;;;;;;5.36;83.75;97206.13;5032019;28;20217;-52
2022/04/22 03:35:46;;;;;;;10.53;7.60;;;;;;;5.29;84.13;97199.97;5032008;28;20188;-52
2022/04/22 03:38:12;;;;;;;10.23;6.93;;;;;;;5.17;84.51;97196.78;5031686;28;20207;-54
2022/04/22 03:40:39;;;;;;;11.77;7.83;;;;;;;5.18;84.37;97201.00;5032160;28;20229;-52
2022/04/22 03:43:06;;;;;;;10.60;7.60;;;;;;;5.07;84.82;97194.31;5031923;28;20214;-56
2022/04/22 03:45:33;;;;;;;10.83;7.70;;;;;;;5.03;85.10;97196.38;5032033;28;20189;-52
2022/04/22 03:48:01;;;;;;;12.53;7.97;;;;;;;5.07;84.96;97198.66;5035235;28;20198;-54
2022/04/22 03:50:28;;;;;;;10.33;7.63;;;;;;;4.98;85.00;97195.22;5035313;28;20212;-53
2022/04/22 03:53:14;;;;;;;12.57;7.90;;;;;;;4.90;85.71;97192.56;5035778;28;20232;-53
2022/04/22 03:55:42;;;;;;;11.03;6.97;;;;;;;4.98;85.56;97193.44;5035653;28;20535;-53
2022/04/22 03:58:11;;;;;;;11.47;7.70;;;;;;;4.93;85.43;97187.91;5035451;28;20209;-53
2022/04/22 04:00:39;;;;;;;9.47;7.20;;;;;;;5.00;87.15;97191.50;5035312;28;20259;-53
2022/04/22 04:03:09;;;;;;;11.40;7.53;;;;;;;4.85;87.27;97193.00;5035631;28;20575;-52
2022/04/22 04:05:54;;;;;;;10.77;7.57;;;;;;;4.78;87.34;97192.81;5035755;28;20557;-55
2022/04/22 04:08:24;;;;;;;10.97;8.00;;;;;;;4.81;87.05;97200.25;5015676;28;20190;-54
2022/04/22 04:16:21;;;;;;;12.47;8.03;;;;;;;4.70;86.48;97208.25;5025228;28;20193;-54
2022/04/22 04:18:49;;;;;;;13.13;8.80;;;;;;;4.60;87.13;97208.34;5029441;28;20225;-53
2022/04/22 04:24:08;;;;;;;13.23;8.27;;;;;;;4.68;87.91;97199.81;4983080;28;20234;-53
2022/04/22 04:26:36;;;;;;;13.67;9.07;;;;;;;4.73;88.33;97202.78;5022982;28;20255;-55
2022/04/22 04:29:04;;;;;;;10.50;7.97;;;;;;;4.72;88.03;97212.31;5023053;28;20178;-52
2022/04/22 04:31:31;;;;;;;12.83;7.57;;;;;;;4.69;88.06;97214.38;5018129;28;20196;-52
2022/04/22 04:33:59;;;;;;;12.00;8.50;;;;;;;4.62;88.41;97209.00;5026464;28;20239;-54
2022/04/22 04:36:25;;;;;;;11.50;8.10;;;;;;;4.70;88.29;97213.41;5018277;28;20199;-53
2022/04/22 04:38:52;;;;;;;13.73;8.87;;;;;;;4.71;88.34;97204.69;5019891;28;20658;-52
2022/04/22 04:41:19;;;;;;;11.93;8.37;;;;;;;4.73;88.70;97216.53;5005238;28;20193;-52
2022/04/22 04:43:46;;;;;;;12.83;9.03;;;;;;;4.79;88.61;97220.28;5022885;28;20219;-53
2022/04/22 04:46:12;;;;;;;12.80;8.67;;;;;;;4.78;88.54;97213.50;5022798;28;20202;-55
2022/04/22 04:48:39;;;;;;;15.30;9.03;;;;;;;4.82;89.05;97211.41;5018749;28;20288;-53
2022/04/22 04:51:07;;;;;;;13.87;9.17;;;;;;;4.93;87.63;97215.53;5018161;28;20206;-52
2022/04/22 04:53:34;;;;;;;18.27;9.87;;;;;;;5.17;87.65;97212.31;5006490;28;20220;-52
2022/04/22 04:56:01;;;;;;;14.70;10.07;;;;;;;5.56;85.52;97206.72;5022750;28;20653;-54
2022/04/22 04:58:28;;;;;;;15.13;10.03;;;;;;;5.79;84.11;97211.38;5013496;28;20292;-53
2022/04/22 05:00:55;;;;;;;15.70;10.03;;;;;;;5.87;83.35;97211.38;5003170;28;20225;-55
2022/04/22 05:03:22;;;;;;;13.60;9.17;;;;;;;5.85;82.98;97213.31;5014476;28;20581;-53
2022/04/22 05:05:49;;;;;;;15.13;9.20;;;;;;;5.85;84.38;97217.69;5026829;28;20248;-55
2022/04/22 05:08:16;;;;;;;18.10;9.67;;;;;;;5.84;83.82;97216.88;5019550;28;20194;-55
2022/04/22 05:10:43;;;;;;;13.67;9.33;;;;;;;5.85;83.63;97222.88;5022558;28;20269;-56
2022/04/22 05:13:10;;;;;;;12.33;9.03;;;;;;;5.83;83.55;97214.44;5014236;28;20225;-55
2022/04/22 05:15:39;;;;;;;15.13;9.63;;;;;;;5.79;83.93;97219.16;5014320;28;20284;-56
2022/04/22 05:18:06;;;;;;;31.40;17.83;;;;;;;5.76;84.18;97215.06;5014165;28;20212;-56
2022/04/22 05:20:33;;;;;;;21.23;13.10;;;;;;;5.77;84.71;97213.31;5013880;28;20190;-55
2022/04/22 05:23:00;;;;;;;18.57;12.27;;;;;;;5.77;84.62;97221.06;5022192;28;20249;-55
2022/04/22 05:25:28;;;;;;;16.43;11.43;;;;;;;5.79;84.99;97220.91;5033125;28;20190;-53
2022/04/22 05:27:55;;;;;;;17.00;10.73;;;;;;;5.80;84.18;97218.19;5033710;28;20243;-56
2022/04/22 05:33:07;;;;;;;17.80;10.90;;;;;;;5.86;84.21;97230.47;5033905;28;20210;-53
2022/04/22 05:35:34;;;;;;;19.77;13.03;;;;;;;5.93;84.65;97232.44;5033603;28;20190;-55
2022/04/22 05:38:02;;;;;;;16.63;10.80;;;;;;;5.96;84.49;97219.19;5033770;28;20288;-54
2022/04/22 05:40:33;;;;;;;17.80;12.50;;;;;;;5.97;84.70;97218.22;5033306;28;20528;-52
2022/04/22 05:43:00;;;;;;;16.00;10.67;;;;;;;6.29;82.43;97214.16;5033674;28;20186;-52
2022/04/22 05:45:28;;;;;;;15.83;10.40;;;;;;;6.40;81.47;97210.44;5033522;28;20192;-52
2022/04/22 05:47:57;;;;;;;16.93;11.67;;;;;;;6.46;82.00;97209.78;5033399;28;20181;-52
2022/04/22 05:50:25;;;;;;;27.10;17.67;;;;;;;6.61;80.65;97208.19;5033082;28;20220;-52
2022/04/22 05:52:52;;;;;;;17.87;12.73;;;;;;;6.70;80.91;97211.63;5033290;28;20202;-54
2022/04/22 05:55:20;;;;;;;17.27;12.27;;;;;;;6.75;81.04;97208.53;5033757;28;20726;-55
2022/04/22 05:57:49;;;;;;;17.40;12.00;;;;;;;6.90;79.00;97214.72;5033242;28;20185;-53
2022/04/22 06:00:18;;;;;;;21.00;12.07;;;;;;;7.02;79.11;97211.78;5032697;28;20217;-56
2022/04/22 06:02:45;;;;;;;18.30;12.60;;;;;;;7.12;78.29;97212.44;5032169;28;21133;-52
2022/04/22 06:05:14;;;;;;;18.10;12.17;;;;;;;7.17;78.25;97206.72;5033132;28;20516;-53
2022/04/22 06:07:42;;;;;;;15.73;11.30;;;;;;;7.28;77.20;97214.19;5033097;28;20191;-54
2022/04/22 06:12:57;;;;;;;21.57;12.60;;;;;;;7.43;76.62;97216.09;5033030;28;20186;-52
2022/04/22 06:15:24;;;;;;;18.10;11.63;;;;;;;7.42;76.26;97220.47;5033046;28;20196;-54
2022/04/22 06:17:51;;;;;;;21.23;13.23;;;;;;;7.46;76.38;97211.38;5032950;28;20182;-52
2022/04/22 06:20:18;;;;;;;22.50;13.43;;;;;;;7.39;76.81;97208.66;5032584;28;20214;-54
2022/04/22 06:22:45;;;;;;;19.07;12.60;;;;;;;7.45;76.86;97208.97;5032778;28;20186;-52
2022/04/22 06:25:12;;;;;;;23.23;13.53;;;;;;;7.48;76.25;97209.44;5032794;28;20217;-53
2022/04/22 06:27:43;;;;;;;23.50;13.97;;;;;;;7.49;76.98;97210.25;5032719;28;20197;-51
2022/04/22 06:30:14;;;;;;;23.17;13.40;;;;;;;7.55;77.08;97209.59;5032480;28;20273;-52
2022/04/22 06:32:42;;;;;;;19.47;12.27;;;;;;;7.64;77.11;97212.97;5032839;28;20183;-52
2022/04/22 06:35:10;;;;;;;27.40;15.20;;;;;;;7.76;76.03;97211.63;5032648;28;20261;-52
2022/04/22 06:37:40;;;;;;;28.43;15.87;;;;;;;7.82;75.23;97208.34;5032405;28;20243;-54
2022/04/22 06:45:49;;;;;;;28.37;15.80;;;;;;;8.27;73.92;97213.03;5032540;28;20194;-54
2022/04/22 06:48:19;;;;;;;23.93;14.37;;;;;;;8.41;73.57;97209.72;5032342;28;20241;-55
2022/04/22 06:50:48;;;;;;;20.33;14.60;;;;;;;8.49;72.92;97214.06;5032911;28;20235;-55
2022/04/22 06:53:16;;;;;;;22.17;13.13;;;;;;;8.66;72.65;97203.56;5032353;28;20214;-53
2022/04/22 06:55:44;;;;;;;20.40;12.80;;;;;;;8.82;71.42;97200.84;5032516;28;20282;-54
2022/04/22 06:58:12;;;;;;;16.67;12.07;;;;;;;8.93;70.65;97202.22;5032429;28;20214;-51
2022/04/22 07:00:41;;;;;;;17.67;12.13;;;;;;;9.03;70.10;97206.34;5032155;28;20214;-55
2022/04/22 07:03:08;;;;;;;18.57;12.27;;;;;;;9.22;70.04;97205.88;5032448;28;20221;-55
2022/04/22 07:05:37;;;;;;;21.27;11.87;;;;;;;9.25;69.11;97215.09;5008726;28;20203;-52
2022/04/22 07:08:06;;;;;;;18.47;12.70;;;;;;;9.29;69.22;97205.94;5012608;28;20188;-53
2022/04/22 07:10:34;;;;;;;17.93;12.33;;;;;;;9.28;68.39;97210.38;5004305;28;20188;-52
2022/04/22 07:13:02;;;;;;;19.63;12.77;;;;;;;9.47;68.38;97200.41;5020426;28;20191;-53
2022/04/22 07:15:29;;;;;;;19.50;12.50;;;;;;;9.52;68.33;97200.69;5012462;28;20195;-54
2022/04/22 07:17:58;;;;;;;21.57;14.10;;;;;;;9.64;68.11;97203.66;5012361;28;20199;-55
2022/04/22 07:20:25;;;;;;;46.23;25.83;;;;;;;9.79;67.44;97203.63;5012908;28;20220;-54
2022/04/22 07:22:53;;;;;;;20.00;13.90;;;;;;;9.86;67.00;97201.91;5016229;28;20261;-52
2022/04/22 07:25:21;;;;;;;20.93;12.83;;;;;;;10.01;67.03;97204.53;5016065;28;20210;-52
2022/04/22 07:27:49;;;;;;;19.70;12.87;;;;;;;10.07;65.60;97202.19;5016129;28;20660;-55
2022/04/22 07:30:18;;;;;;;19.70;13.23;;;;;;;10.20;65.29;97199.69;5015820;28;20192;-54
2022/04/22 07:32:48;;;;;;;19.40;12.17;;;;;;;10.36;65.54;97203.91;5016159;28;20218;-55
2022/04/22 07:35:18;;;;;;;18.17;12.53;;;;;;;10.22;64.65;97196.91;5016165;28;20207;-51
2022/04/22 07:37:47;;;;;;;19.37;12.77;;;;;;;10.41;64.53;97198.97;5016326;28;20190;-55
2022/04/22 07:40:15;;;;;;;18.67;10.43;;;;;;;10.54;64.41;97203.50;5015603;28;20306;-54
2022/04/22 07:46:46;;;;;;;19.53;12.47;;;;;;;10.57;63.23;97207.56;5015924;28;20200;-53
2022/04/22 07:48:18;;;;;;;19.97;13.50;;;;;;;10.83;62.51;97191.34;5015389;28;20196;-55
2022/04/22 07:50:48;;;;;;;18.37;13.13;;;;;;;11.01;62.77;97200.50;5015731;28;20265;-54
2022/04/22 07:53:15;;;;;;;20.27;14.00;;;;;;;11.04;62.49;97192.31;5015576;28;20274;-55
2022/04/22 07:55:43;;;;;;;17.43;12.40;;;;;;;11.00;61.14;97191.84;5015674;28;20192;-55
2022/04/22 07:58:13;;;;;;;19.93;12.70;;;;;;;11.16;61.77;97198.59;5015469;28;20201;-55
2022/04/22 08:00:40;;;;;;;18.03;12.93;;;;;;;11.24;60.96;97189.81;5015283;28;20570;-54
2022/04/22 08:03:07;;;;;;;19.97;14.13;;;;;;;11.42;61.47;97189.34;5024118;28;20217;-55
2022/04/22 08:05:34;;;;;;;18.17;12.00;;;;;;;11.50;60.95;97189.19;5003226;28;20654;-52
2022/04/22 08:08:03;;;;;;;18.30;13.30;;;;;;;11.60;60.39;97182.81;5024774;28;20847;-52
2022/04/22 08:10:30;;;;;;;23.00;14.73;;;;;;;11.77;60.47;97186.72;5024159;28;20199;-55
2022/04/22 08:12:57;;;;;;;20.77;13.80;;;;;;;11.79;61.80;97186.50;5023371;28;20188;-54
2022/04/22 08:15:24;;;;;;;26.17;17.87;;;;;;;11.90;63.29;97182.56;5023036;28;20276;-52
2022/04/22 08:17:51;;;;;;;26.20;17.37;;;;;;;11.86;63.79;97183.94;5024165;28;20213;-55
2022/04/22 08:20:18;;;;;;;26.87;17.67;;;;;;;11.82;65.01;97188.72;5023104;28;20208;-54
2022/04/22 08:22:45;;;;;;;29.83;17.27;;;;;;;11.45;65.17;97185.53;5020831;28;20231;-52
2022/04/22 08:25:14;;;;;;;29.70;19.20;;;;;;;11.58;65.54;97188.25;5020226;28;20203;-51
2022/04/22 08:27:41;;;;;;;29.20;18.17;;;;;;;11.61;65.34;97185.25;5023039;28;20724;-55
2022/04/22 08:30:10;;;;;;;27.47;18.47;;;;;;;11.64;65.66;97184.84;5004369;28;20707;-52
2022/04/22 08:32:36;;;;;;;29.53;18.13;;;;;;;11.71;65.84;97189.28;5022955;28;20190;-52
2022/04/22 08:35:04;;;;;;;30.47;18.87;;;;;;;11.79;64.92;97181.28;5017880;28;20696;-52
2022/04/22 08:37:30;;;;;;;27.53;18.83;;;;;;;11.77;65.37;97189.31;4996598;28;20209;-53
2022/04/22 08:39:58;;;;;;;30.50;19.40;;;;;;;11.78;65.49;97182.28;5012351;28;20221;-52
2022/04/22 08:42:27;;;;;;;30.07;19.70;;;;;;;11.86;65.48;97178.72;5021189;28;20201;-52
2022/04/22 08:44:55;;;;;;;27.80;18.23;;;;;;;11.96;63.94;97187.00;5022376;28;20208;-52
2022/04/22 08:50:13;;;;;;;32.87;19.97;;;;;;;11.99;65.29;97170.09;5022429;28;20190;-52
2022/04/22 08:52:42;;;;;;;25.30;16.93;;;;;;;12.18;63.74;97164.16;5021352;28;20319;-51
2022/04/22 08:55:10;;;;;;;26.40;17.07;;;;;;;12.37;63.80;97164.41;5014361;28;20213;-51
2022/04/22 08:57:38;;;;;;;25.30;17.00;;;;;;;12.53;62.71;97171.06;5014074;28;20193;-53
2022/04/22 09:00:08;;;;;;;24.73;15.77;;;;;;;12.51;61.92;97170.47;5013554;28;20213;-54
2022/04/22 09:02:35;;;;;;;23.47;15.57;;;;;;;12.59;60.67;97164.25;5014055;28;20201;-52
2022/04/22 09:05:02;;;;;;;24.77;15.53;;;;;;;12.77;61.06;97164.44;5014017;28;20209;-54
2022/04/22 09:07:32;;;;;;;23.83;17.07;;;;;;;12.98;61.02;97157.38;5013700;28;20202;-51
2022/04/22 09:09:58;;;;;;;25.70;17.57;;;;;;;12.89;61.19;97159.41;5013161;28;20197;-53
2022/04/22 09:12:27;;;;;;;25.93;17.27;;;;;;;13.04;60.99;97156.59;5013827;28;20570;-51
2022/04/22 09:14:57;;;;;;;28.53;18.20;;;;;;;12.89;60.00;97153.34;5019885;28;20213;-54
2022/04/22 09:17:27;;;;;;;29.33;18.47;;;;;;;12.75;61.27;97157.81;5014871;28;20278;-50
2022/04/22 09:19:55;;;;;;;29.47;18.90;;;;;;;12.83;61.63;97158.41;5012984;28;20482;-55
2022/04/22 09:22:23;;;;;;;25.27;17.87;;;;;;;12.95;61.07;97153.38;5011133;28;20212;-52
2022/04/22 09:24:51;;;;;;;25.23;18.20;;;;;;;13.09;60.82;97150.75;5010992;28;20700;-50
2022/04/22 09:27:18;;;;;;;29.63;18.77;;;;;;;13.03;60.99;97152.34;5007118;28;20210;-51
2022/04/22 09:29:52;;;;;;;27.30;18.10;;;;;;;12.95;60.11;97145.53;5010337;28;20196;-51
2022/04/22 09:32:27;;;;;;;28.63;18.27;;;;;;;12.87;60.38;97140.47;5010293;28;20223;-52
2022/04/22 09:34:57;;;;;;;25.80;18.30;;;;;;;12.88;61.51;97139.47;5007960;28;20259;-51
2022/04/22 09:43:14;;;;;;;28.00;18.30;;;;;;;13.33;58.48;97130.94;5012673;28;20217;-50
2022/04/22 09:45:41;;;;;;;26.90;18.67;;;;;;;13.41;59.61;97124.66;5012792;28;20195;-54
2022/04/22 09:48:20;;;;;;;26.30;17.77;;;;;;;13.48;59.21;97129.94;5012825;28;20198;-51
2022/04/22 09:50:52;;;;;;;27.53;18.10;;;;;;;13.51;58.46;97129.53;5013112;28;20657;-52
2022/04/22 09:53:28;;;;;;;25.73;17.93;;;;;;;13.50;59.17;97127.91;5012196;28;20217;-51
2022/04/22 09:55:56;;;;;;;27.47;18.63;;;;;;;13.62;58.76;97115.78;5012703;28;20190;-51
2022/04/22 09:58:25;;;;;;;25.97;17.10;;;;;;;13.50;58.50;97115.59;5012243;28;20194;-51
2022/04/22 10:01:02;;;;;;;26.33;17.60;;;;;;;13.57;58.78;97112.97;5012452;28;20293;-54
2022/04/22 10:03:32;;;;;;;22.43;16.07;;;;;;;13.80;58.77;97120.31;5012386;28;20856;-53
2022/04/22 10:05:59;;;;;;;29.03;18.37;;;;;;;13.72;59.29;97107.44;5012476;28;20719;-52
2022/04/22 10:08:28;;;;;;;25.87;17.47;;;;;;;13.96;57.84;97108.53;5011222;28;20202;-53
2022/04/22 10:10:59;;;;;;;28.90;17.53;;;;;;;13.82;57.81;97107.81;5012424;28;20287;-50
2022/04/22 10:13:30;;;;;;;24.97;17.53;;;;;;;14.02;57.11;97106.91;5020299;28;20329;-52
2022/04/22 10:15:57;;;;;;;25.30;16.93;;;;;;;14.02;57.17;97101.66;5012444;28;20242;-51
2022/04/22 10:18:26;;;;;;;26.33;16.27;;;;;;;14.27;57.90;97103.53;5011884;28;20200;-51
2022/04/22 10:20:54;;;;;;;25.10;16.97;;;;;;;14.41;56.89;97099.78;5011545;28;20446;-50
2022/04/22 10:23:22;;;;;;;21.23;15.23;;;;;;;14.51;56.77;97099.31;5011287;28;20217;-52
2022/04/22 10:25:49;;;;;;;31.87;16.87;;;;;;;14.53;55.48;97094.66;5019300;28;20263;-51
2022/04/22 10:28:16;;;;;;;22.73;15.67;;;;;;;14.67;55.16;97092.72;5022203;28;20199;-53
2022/04/22 10:30:44;;;;;;;24.00;16.17;;;;;;;14.76;55.60;97090.69;5025154;28;20193;-51
2022/04/22 10:33:12;;;;;;;25.60;15.77;;;;;;;14.76;53.95;97094.09;5031530;28;20208;-52
2022/04/22 10:35:44;;;;;;;22.77;14.70;;;;;;;14.57;54.56;97090.59;5031807;28;20190;-52
2022/04/22 10:38:33;;;;;;;20.67;15.37;;;;;;;14.73;54.87;97089.25;5013333;28;20276;-51
2022/04/22 10:41:02;;;;;;;18.33;11.43;;;;;;;14.58;53.68;97100.06;4992394;28;20216;-54
2022/04/22 10:43:30;;;;;;;19.80;13.57;;;;;;;14.66;54.49;97093.75;4992108;28;20210;-51
2022/04/22 10:48:44;;;;;;;24.40;17.03;;;;;;;14.73;53.87;97089.25;4992128;28;20185;-52
2022/04/22 10:51:10;;;;;;;23.43;15.77;;;;;;;14.80;53.74;97085.78;4974844;28;20192;-51
2022/04/22 10:53:49;;;;;;;21.30;15.27;;;;;;;14.95;54.16;97077.53;4992145;28;20278;-51
2022/04/22 10:56:37;;;;;;;19.40;14.10;;;;;;;14.91;53.33;97074.56;4991788;28;20573;-50
2022/04/22 10:59:32;;;;;;;20.10;15.23;;;;;;;15.01;52.67;97076.69;4988722;28;20214;-53
2022/04/22 11:02:00;;;;;;;23.77;13.80;;;;;;;14.96;51.73;97060.75;4992655;28;20185;-52
2022/04/22 11:04:31;;;;;;;23.53;14.40;;;;;;;15.16;52.27;97069.25;4991908;28;20287;-51
2022/04/22 11:06:58;;;;;;;21.07;14.97;;;;;;;15.22;51.33;97067.59;4992322;28;20215;-50
2022/04/22 11:09:27;;;;;;;21.03;14.07;;;;;;;15.20;52.02;97065.16;4991644;28;20209;-51
2022/04/22 11:11:54;;;;;;;19.47;14.17;;;;;;;15.32;52.06;97059.16;4992209;28;20222;-51
2022/04/22 11:14:23;;;;;;;21.13;14.93;;;;;;;15.27;51.81;97053.78;4991875;28;20212;-52
2022/04/22 11:16:50;;;;;;;23.57;15.10;;;;;;;15.29;51.13;97059.63;4992410;28;20273;-51
2022/04/22 11:19:26;;;;;;;19.07;14.77;;;;;;;15.29;51.78;97051.72;4991725;28;20603;-50
2022/04/22 11:21:55;;;;;;;19.53;13.07;;;;;;;15.24;51.26;97052.41;4992321;28;20300;-55
2022/04/22 11:24:26;;;;;;;21.45;14.43;;;;;;;15.28;51.11;97044.88;4991760;28;20167;-54
2022/04/22 11:27:03;;;;;;;19.33;13.57;;;;;;;15.46;51.56;97047.47;4991940;28;20180;-50
2022/04/22 11:29:30;;;;;;;18.30;11.77;;;;;;;15.56;50.67;97043.53;4991492;28;20726;-51
2022/04/22 11:32:05;;;;;;;20.83;13.43;;;;;;;15.60;50.75;97063.09;4992039;28;20179;-51
2022/04/22 11:35:11;;;;;;;20.97;14.33;;;;;;;15.70;49.59;97052.03;4991846;28;20695;-53
2022/04/22 11:37:38;;;;;;;19.13;12.70;;;;;;;15.69;50.06;97047.81;4991312;28;20222;-51
2022/04/22 11:40:09;;;;;;;20.60;12.93;;;;;;;15.68;49.49;97044.38;5008743;28;20317;-51
2022/04/22 11:42:43;;;;;;;16.67;12.77;;;;;;;15.88;49.44;97051.22;5000078;28;20215;-51
2022/04/22 11:45:13;;;;;;;18.67;13.00;;;;;;;15.81;49.30;97058.38;5017902;28;20273;-51
2022/04/22 11:47:40;;;;;;;16.67;12.20;;;;;;;15.88;50.35;97041.50;5031278;28;20194;-51
2022/04/22 11:50:09;;;;;;;19.13;12.77;;;;;;;15.54;49.46;97038.47;5031242;28;20577;-51
2022/04/22 11:52:37;;;;;;;19.17;13.83;;;;;;;15.76;50.05;97044.06;5031342;28;20187;-52
2022/04/22 11:55:07;;;;;;;21.07;13.70;;;;;;;15.87;48.92;97044.38;5031021;28;20216;-52
2022/04/22 11:57:36;;;;;;;17.07;13.27;;;;;;;15.75;49.75;97042.47;5031392;28;20183;-52
2022/04/22 12:05:38;;;;;;;20.30;14.00;;;;;;;15.85;49.93;97041.13;5031319;28;20194;-53
2022/04/22 12:08:10;;;;;;;17.10;13.73;;;;;;;16.09;49.42;97034.13;5033279;28;20195;-52
2022/04/22 12:10:39;;;;;;;15.47;10.23;;;;;;;16.13;49.45;97037.09;5034965;28;20201;-52
2022/04/22 12:13:08;;;;;;;15.60;11.33;;;;;;;16.26;49.29;97054.53;5034656;28;20198;-51
2022/04/22 12:15:39;;;;;;;19.00;12.77;;;;;;;16.28;48.47;97042.72;5034867;28;20238;-52
2022/04/22 12:18:06;;;;;;;16.90;11.77;;;;;;;16.33;47.74;97037.59;5034670;28;20567;-53
2022/04/22 12:20:33;;;;;;;17.63;13.37;;;;;;;16.38;47.89;97027.19;5034366;28;20301;-51
2022/04/22 12:23:00;;;;;;;17.07;12.67;;;;;;;16.29;48.33;97036.44;5034734;28;20195;-52
2022/04/22 12:25:44;;;;;;;17.67;13.23;;;;;;;16.53;47.81;97031.19;5034418;28;20186;-53